Latest Weather Observations for Tennant Creek

IDD60801

Issued at 9:02 pm CST Saturday 4 July 2015 (issued every 30 minutes, with the page automatically refreshed every 10 minutes)

About weather observations | Map of weather stations | Latest weather observations for NT | Other Formats
Station Details ID: 015135 Name: TENNANT CREEK AIRPORT Lat: -19.64 Lon: 134.18 Height: 375.7 m
Data from the previous 72 hours. | See also: Recent months at Tennant Creek
Date/Time
CST
Temp
°C
App
Temp
°C
Dew
Point
Rel
Hum
%
Delta-T
°C
Wind Press
QNH
hPa
Press
MSL
hPa
Rain
since 9 am
mm
Dir
 
Spd
km/h
Gust
km/h
Spd
kts
Gust
kts
04/09:00pm 14.8 11.7 1.2 39 6.0 E 7 9 4 5 1018.8 1017.8 0.0
04/08:30pm 15.5 12.5 1.7 39 6.2 E 7 9 4 5 1018.6 - 0.0
04/08:00pm 16.6 13.4 0.9 34 7.0 ESE 7 11 4 6 1018.3 - 0.0
04/07:30pm 16.8 13.6 0.9 34 7.1 E 7 11 4 6 1018.0 - 0.0
04/07:00pm 17.9 14.8 1.4 33 7.5 E 7 9 4 5 1017.8 - 0.0
04/06:30pm 19.4 16.1 0.3 27 8.6 ESE 7 9 4 5 1017.4 - 0.0
04/06:00pm 20.9 16.8 -0.5 24 9.6 ESE 11 17 6 9 1017.2 1016.3 0.0
04/05:30pm 21.7 16.8 -0.3 23 10.0 E 15 24 8 13 1016.9 - 0.0
04/05:00pm 22.2 18.1 -0.5 22 10.3 ESE 11 20 6 11 1016.8 - 0.0
04/04:30pm 22.4 18.2 -0.8 21 10.5 ESE 11 17 6 9 1016.6 - 0.0
04/04:00pm 22.6 18.4 -0.8 21 10.6 SE 11 20 6 11 1016.5 - 0.0
04/03:30pm 22.3 17.0 -0.6 21 10.4 SE 17 26 9 14 1016.5 - 0.0
04/03:00pm 22.5 18.0 -0.6 21 10.5 E 13 24 7 13 1016.8 1015.9 0.0
04/02:30pm 22.0 18.0 0.3 23 10.0 E 11 32 6 17 1017.2 - 0.0
04/02:00pm 21.8 17.8 0.2 23 9.9 ENE 11 22 6 12 1017.6 - 0.0
04/01:30pm 21.6 17.1 -0.2 23 9.9 E 13 22 7 12 1018.3 - 0.0
04/01:00pm 21.1 16.2 -0.5 23 9.7 ESE 15 24 8 13 1018.9 - 0.0
04/12:30pm 20.4 15.7 -1.5 23 9.6 E 13 22 7 12 1019.6 - 0.0
04/12:00pm 20.2 14.3 -2.0 22 9.6 E 19 26 10 14 1020.0 1019.1 0.0
04/11:30am 19.1 13.1 -3.1 22 9.3 E 19 28 10 15 1020.2 - 0.0
04/11:00am 18.6 12.3 -3.8 21 9.2 E 20 30 11 16 1020.5 - 0.0
04/10:30am 17.4 10.3 -4.2 22 8.7 E 24 30 13 16 1020.7 - 0.0
04/10:00am 16.8 9.7 -4.6 23 8.5 E 24 30 13 16 1021.0 - 0.0
04/09:30am 15.6 8.8 -5.0 24 8.0 ESE 22 32 12 17 1021.1 - 0.0
04/09:00am 14.2 6.7 -4.8 26 7.3 ESE 26 35 14 19 1020.7 1019.7 0.0
04/08:30am 12.4 5.2 -4.9 29 6.5 ESE 24 33 13 18 1020.3 - 0.0
04/08:00am 10.8 4.4 -4.9 33 5.8 ESE 20 26 11 14 1020.3 - 0.0
04/07:30am 9.8 3.9 -5.5 33 5.5 ESE 17 26 9 14 1019.9 - 0.0
04/07:00am 9.9 4.4 -5.3 34 5.5 ESE 15 20 8 11 1020.0 - 0.0
04/06:30am 10.0 4.5 -5.6 33 5.6 ESE 15 22 8 12 1019.8 - 0.0
04/06:00am 10.3 4.7 -5.9 31 5.8 ESE 15 20 8 11 1019.6 1018.7 0.0
04/05:30am 10.5 5.0 -5.5 32 5.8 ESE 15 24 8 13 1019.5 - 0.0
04/05:00am 11.1 5.9 -5.7 30 6.1 ESE 13 17 7 9 1019.5 - 0.0
04/04:30am 11.2 5.7 -5.5 30 6.1 E 15 24 8 13 1019.5 - 0.0
04/04:00am 11.3 6.1 -5.7 30 6.2 ESE 13 22 7 12 1019.3 - 0.0
04/03:30am 11.2 6.1 -5.0 32 6.0 ESE 13 17 7 9 1019.4 - 0.0
04/03:00am 11.8 6.3 -5.6 29 6.4 E 15 20 8 11 1019.4 1018.5 0.0
04/02:30am 11.6 6.5 -5.1 30 6.2 ESE 13 17 7 9 1019.6 - 0.0
04/02:00am 11.5 6.9 -4.5 32 6.0 ESE 11 15 6 8 1019.7 - 0.0
04/01:30am 11.5 7.0 -3.6 34 5.8 ESE 11 15 6 8 1019.9 - 0.0
04/01:00am 12.5 7.9 -3.8 32 6.3 ESE 11 17 6 9 1020.1 - 0.0
04/12:30am 12.7 8.6 -3.1 33 6.2 ESE 9 13 5 7 1020.1 - 0.0
04/12:00am 12.4 8.9 -1.3 38 5.6 E 7 11 4 6 1020.1 1019.2 0.0
 
Date/Time
CST
Temp
°C
App
Temp
°C
Dew
Point
Rel
Hum
%
Delta-T
°C
Wind Press
QNH
hPa
Press
MSL
hPa
Rain
since 9 am
mm
Dir
 
Spd
km/h
Gust
km/h
Spd
kts
Gust
kts
03/11:30pm 12.8 8.6 -0.7 39 5.6 E 11 13 6 7 1020.1 - 0.0
03/11:00pm 13.7 9.2 -0.6 37 6.0 E 13 17 7 9 1020.2 - 0.0
03/10:30pm 13.4 9.3 -0.4 38 5.8 E 11 13 6 7 1020.3 - 0.0
03/10:00pm 15.2 11.3 -1.2 32 6.9 E 9 13 5 7 1020.2 - 0.0
03/09:30pm 14.2 10.3 1.2 41 5.7 E 11 11 6 6 1020.2 - 0.0
03/09:00pm 14.8 10.8 0.2 37 6.3 E 11 13 6 7 1020.2 1019.3 0.0
03/08:30pm 15.1 11.5 0.7 37 6.3 E 9 13 5 7 1020.1 - 0.0
03/08:00pm 15.9 12.6 0.3 34 6.8 E 7 9 4 5 1020.0 - 0.0
03/07:30pm 16.5 13.3 1.0 35 6.9 E 7 7 4 4 1019.8 - 0.0
03/07:00pm 17.5 14.4 0.0 30 7.7 ESE 6 9 3 5 1019.5 - 0.0
03/06:30pm 18.6 14.4 -1.2 26 8.6 E 11 17 6 9 1019.1 - 0.0
03/06:00pm 20.1 15.3 -2.2 22 9.6 ESE 13 20 7 11 1018.7 1017.7 0.0
03/05:30pm 21.3 16.5 -2.9 19 10.4 ESE 13 20 7 11 1018.5 - 0.0
03/05:00pm 21.6 16.2 -4.5 17 10.9 ESE 15 26 8 14 1018.4 - 0.0
03/04:30pm 21.9 16.1 -4.2 17 11.0 E 17 26 9 14 1018.4 - 0.0
03/04:00pm 22.1 17.2 -3.3 18 10.9 ESE 13 22 7 12 1018.5 - 0.0
03/03:30pm 21.5 16.5 -4.3 17 10.8 ESE 13 22 7 12 1018.7 - 0.0
03/03:00pm 21.9 17.0 -3.3 18 10.8 ESE 13 24 7 13 1018.9 1017.9 0.0
03/02:30pm 21.8 17.4 -2.6 19 10.6 ENE 11 20 6 11 1019.2 - 0.0
03/02:00pm 21.5 17.2 -1.6 21 10.2 E 11 17 6 9 1019.5 - 0.0
03/01:30pm 20.9 15.8 -1.7 22 9.9 E 15 26 8 14 1020.0 - 0.0
03/01:00pm 19.9 15.3 -1.4 23 9.3 E 13 26 7 14 1020.7 - 0.0
03/12:30pm 19.1 14.2 -0.7 26 8.7 E 15 28 8 15 1021.3 - 0.0
03/12:00pm 19.3 14.0 -0.3 26 8.7 ESE 17 26 9 14 1021.7 1020.8 0.0
03/11:30am 18.7 12.9 0.0 28 8.3 E 20 32 11 17 1022.2 - 0.0
03/11:00am 17.9 11.7 0.0 30 7.9 ESE 22 30 12 16 1022.6 - 0.0
03/10:30am 17.3 10.7 -0.4 30 7.7 ESE 24 33 13 18 1023.1 - 0.0
03/10:00am 16.4 9.4 -0.6 31 7.3 E 26 35 14 19 1023.2 - 0.0
03/09:30am 14.9 7.4 -1.1 33 6.7 ESE 28 41 15 22 1023.5 - 0.0
03/09:00am 14.2 6.4 -0.8 35 6.3 ESE 30 41 16 22 1023.3 1022.4 0.0
03/08:30am 13.1 6.7 -1.6 36 6.0 ESE 22 32 12 17 1023.1 - 0.0
03/08:00am 11.8 5.7 -2.0 38 5.5 ESE 20 28 11 15 1022.8 - 0.0
03/07:30am 10.9 5.0 -2.0 40 5.1 ESE 19 28 10 15 1022.6 - 0.0
03/07:00am 10.8 4.9 -2.2 40 5.1 ESE 19 28 10 15 1022.5 - 0.0
03/06:30am 11.2 4.7 -2.3 39 5.3 ESE 22 30 12 16 1022.4 - 0.0
03/06:00am 11.4 4.9 -2.3 38 5.4 ESE 22 30 12 16 1022.1 1021.2 0.0
03/05:30am 11.5 4.6 -2.5 37 5.5 ESE 24 33 13 18 1021.8 - 0.0
03/05:00am 11.8 4.9 -2.4 37 5.6 ESE 24 32 13 17 1021.8 - 0.0
03/04:30am 12.3 5.8 -2.3 36 5.8 ESE 22 33 12 18 1021.9 - 0.0
03/04:00am 12.6 6.1 -2.1 36 5.9 ESE 22 33 12 18 1022.1 - 0.0
03/03:30am 12.8 6.8 -1.4 37 5.8 ESE 20 28 11 15 1022.3 - 0.0
03/03:00am 13.3 7.4 -0.9 37 5.9 ESE 20 28 11 15 1022.5 1021.6 0.0
03/02:30am 13.8 7.5 -0.8 36 6.1 ESE 22 32 12 17 1022.6 - 0.0
03/02:00am 14.2 8.0 -0.1 37 6.1 ESE 22 32 12 17 1022.6 - 0.0
03/01:30am 14.6 8.2 0.8 39 6.0 ESE 24 39 13 21 1022.7 - 0.0
03/01:00am 15.1 8.8 1.3 39 6.1 ESE 24 35 13 19 1022.8 - 0.0
03/12:30am 15.6 10.1 2.1 40 6.1 ESE 20 28 11 15 1022.8 - 0.0
03/12:00am 16.2 10.7 2.1 38 6.4 ESE 20 30 11 16 1022.7 1021.8 0.0
 
Date/Time
CST
Temp
°C
App
Temp
°C
Dew
Point
Rel
Hum
%
Delta-T
°C
Wind Press
QNH
hPa
Press
MSL
hPa
Rain
since 9 am
mm
Dir
 
Spd
km/h
Gust
km/h
Spd
kts
Gust
kts
02/11:30pm 16.1 10.9 2.3 39 6.3 ESE 19 28 10 15 1022.9 - 0.0
02/11:00pm 16.3 11.9 2.6 39 6.3 ESE 15 22 8 12 1023.1 - 0.0
02/10:30pm 16.7 12.0 2.9 39 6.4 ESE 17 24 9 13 1023.1 - 0.0
02/10:00pm 17.1 12.0 3.2 39 6.5 ESE 19 26 10 14 1023.0 - 0.0
02/09:30pm 17.1 13.3 4.1 42 6.2 ESE 13 17 7 9 1022.8 - 0.0
02/09:00pm 17.6 13.9 4.6 42 6.3 ESE 13 17 7 9 1022.7 1021.8 0.0
02/08:30pm 17.9 14.7 5.0 42 6.3 ESE 11 15 6 8 1022.4 - 0.0
02/08:00pm 18.4 15.2 4.9 41 6.6 ESE 11 15 6 8 1022.1 - 0.0
02/07:30pm 19.2 16.0 5.0 39 7.0 ESE 11 15 6 8 1021.7 - 0.0
02/07:00pm 20.1 16.9 5.0 37 7.5 ESE 11 15 6 8 1021.3 - 0.0
02/06:30pm 21.0 17.7 4.7 34 8.1 ESE 11 17 6 9 1021.0 - 0.0
02/06:00pm 22.1 18.0 4.4 31 8.8 ESE 15 22 8 12 1020.7 1019.7 0.0
02/05:30pm 23.0 18.5 4.4 29 9.3 ESE 17 22 9 12 1020.4 - 0.0
02/05:00pm 23.4 19.0 4.5 29 9.5 SE 17 26 9 14 1020.3 - 0.0
02/04:30pm 23.5 19.1 4.7 29 9.5 ESE 17 24 9 13 1020.2 - 0.0
02/04:00pm 24.0 18.9 4.3 28 9.9 E 20 28 11 15 1020.4 - 0.0
02/03:30pm 23.5 18.0 4.1 28 9.7 SE 22 30 12 16 1020.5 - 0.0
02/03:00pm 24.3 19.2 4.2 27 10.1 E 20 32 11 17 1020.9 1019.9 0.0
02/02:30pm 23.7 17.8 4.1 28 9.8 E 24 33 13 18 1021.2 - 0.0
02/02:00pm 24.0 19.0 3.7 26 10.1 ESE 19 24 10 13 1021.6 - 0.0
02/01:30pm 23.7 18.6 4.1 28 9.8 E 20 30 11 16 1022.2 - 0.0
02/01:00pm 23.5 17.6 4.0 28 9.7 E 24 39 13 21 1022.9 - 0.0
02/12:30pm 22.3 16.9 4.4 31 8.9 E 22 33 12 18 1023.7 - 0.0
02/12:00pm 22.3 15.9 5.3 33 8.6 E 28 39 15 21 1024.4 1023.5 0.0
02/11:30am 21.4 14.9 4.7 33 8.3 E 28 39 15 21 1025.0 - 0.0
02/11:00am 20.6 15.0 5.2 36 7.7 E 24 32 13 17 1025.1 - 0.0
02/10:30am 19.0 11.8 5.2 40 6.8 ESE 32 43 17 23 1025.5 - 0.0
02/10:00am 18.7 11.9 5.3 41 6.6 E 30 46 16 25 1025.6 - 0.0
02/09:30am 17.5 10.4 5.5 45 5.9 ESE 32 44 17 24 1025.6 - 0.0
02/09:06am 16.6 9.5 5.5 48 5.4 ESE 32 50 17 27 1025.6 - 0.0
02/09:00am 16.4 9.7 5.8 49 5.2 ESE 30 44 16 24 1025.5 1024.6 0.0
02/08:30am 15.6 9.3 5.7 51 4.8 ESE 28 43 15 23 1025.2 - 0.0
02/08:00am 15.0 8.8 6.0 55 4.4 ESE 28 41 15 22 1025.0 - 0.0
02/07:30am 14.7 8.8 5.8 55 4.3 ESE 26 39 14 21 1024.5 - 0.0
02/07:00am 14.6 8.7 6.0 56 4.2 ESE 26 35 14 19 1024.1 - 0.0
02/06:30am 14.9 8.6 5.8 54 4.4 ESE 28 39 15 21 1023.9 - 0.0
02/06:00am 15.1 8.8 5.9 54 4.5 ESE 28 39 15 21 1023.7 1022.7 0.0
02/05:30am 15.4 9.1 5.7 52 4.7 ESE 28 39 15 21 1023.6 - 0.0
02/05:00am 15.8 9.8 5.5 50 5.0 ESE 26 41 14 22 1023.2 - 0.0
02/04:30am 16.1 10.2 5.7 50 5.1 ESE 26 39 14 21 1023.1 - 0.0
02/04:00am 16.4 10.8 5.5 48 5.3 ESE 24 32 13 17 1023.0 - 0.0
02/03:33am 16.9 10.6 5.5 47 5.6 ESE 28 48 15 26 1023.0 - 0.0
02/03:30am 17.0 11.0 5.3 46 5.7 ESE 26 35 14 19 1023.0 - 0.0
02/03:00am 17.2 11.3 5.6 46 5.7 ESE 26 35 14 19 1023.1 1022.2 0.0
02/02:30am 17.5 11.2 5.8 46 5.8 ESE 28 41 15 22 1023.2 - 0.0
02/02:00am 17.8 11.5 5.9 45 5.9 ESE 28 41 15 22 1023.3 - 0.0
02/01:30am 18.1 13.0 5.8 44 6.1 ESE 22 32 12 17 1023.6 - 0.0
02/01:00am 18.4 13.3 6.0 44 6.2 ESE 22 30 12 16 1023.5 - 0.0
02/12:30am 18.6 13.2 6.5 45 6.1 ESE 24 35 13 19 1023.7 - 0.0
02/12:00am 18.8 14.3 6.8 45 6.1 ESE 20 30 11 16 1023.7 1022.7 0.0
 
Date/Time
CST
Temp
°C
App
Temp
°C
Dew
Point
Rel
Hum
%
Delta-T
°C
Wind Press
QNH
hPa
Press
MSL
hPa
Rain
since 9 am
mm
Dir
 
Spd
km/h
Gust
km/h
Spd
kts
Gust
kts
01/11:30pm 18.8 14.6 7.6 48 5.8 ESE 19 26 10 14 1023.8 - 0.0
01/11:00pm 18.9 15.2 7.9 49 5.7 ESE 17 26 9 14 1023.9 - 0.0
01/10:30pm 19.2 15.2 8.1 48 5.8 ESE 19 26 10 14 1024.0 - 0.0
01/10:00pm 19.7 16.5 8.5 48 5.9 ESE 15 24 8 13 1024.0 - 0.0
01/09:30pm 20.0 17.2 8.7 48 6.0 ESE 13 20 7 11 1023.8 - 0.0

Other Formats:

Comma delimited format used in spreadsheet applications
http://www.bom.gov.au/fwo/IDD60801/IDD60801.94238.axf

JavaScript Object Notation format (JSON) in row-major order
http://www.bom.gov.au/fwo/IDD60801/IDD60801.94238.json